createdAt,value
2018-06-28T00:01:09.933Z,26.10
2018-06-28T00:03:43.109Z,26.20
2018-06-28T00:06:16.229Z,26.30
2018-06-28T00:08:49.295Z,26.50
2018-06-28T00:11:22.717Z,26.70
2018-06-28T00:13:55.972Z,26.90
2018-06-28T00:16:29.138Z,27.10
2018-06-28T00:19:02.524Z,27.30
2018-06-28T00:21:35.803Z,27.50
2018-06-28T00:24:09.062Z,27.70
2018-06-28T00:26:42.487Z,27.90
2018-06-28T00:29:15.732Z,28.30
2018-06-28T00:31:49.526Z,29.00
2018-06-28T00:34:23.559Z,29.60
2018-06-28T00:36:57.353Z,30.00
2018-06-28T00:39:31.405Z,30.30
2018-06-28T00:42:05.143Z,30.40
2018-06-28T00:44:38.855Z,30.40
2018-06-28T00:47:12.527Z,30.30
2018-06-28T00:52:18.206Z,30.30
2018-06-28T00:54:51.521Z,30.40
2018-06-28T00:57:24.687Z,30.40
2018-06-28T00:59:57.949Z,30.50
2018-06-28T01:02:31.013Z,30.50
2018-06-28T01:05:04.072Z,30.60
2018-06-28T01:07:37.173Z,30.70
2018-06-28T01:10:10.306Z,30.80
2018-06-28T01:12:43.372Z,31.00
2018-06-28T01:15:16.491Z,31.10
2018-06-28T01:17:49.588Z,31.00
2018-06-28T01:20:22.696Z,30.80
2018-06-28T01:22:55.786Z,30.70
2018-06-28T01:25:28.900Z,30.70
2018-06-28T01:28:02.008Z,30.90
2018-06-28T01:30:35.134Z,31.00
2018-06-28T01:33:08.234Z,31.30
2018-06-28T01:35:42.456Z,31.40
2018-06-28T01:38:15.667Z,31.30
2018-06-28T01:40:49.268Z,31.40
2018-06-28T01:43:34.243Z,31.10
2018-06-28T01:46:07.361Z,31.10
2018-06-28T01:48:40.465Z,31.20
2018-06-28T01:51:13.597Z,31.50
2018-06-28T01:53:47.504Z,31.40
2018-06-28T01:56:20.526Z,31.60
2018-06-28T01:58:53.623Z,31.60
2018-06-28T02:01:26.670Z,31.50
2018-06-28T02:03:59.873Z,31.70
2018-06-28T02:06:33.086Z,32.00
2018-06-28T02:09:06.718Z,31.90
2018-06-28T02:11:40.031Z,32.10
2018-06-28T02:14:13.856Z,32.30
2018-06-28T02:16:47.905Z,32.40
2018-06-28T02:19:21.668Z,32.40
2018-06-28T02:21:55.447Z,32.60
2018-06-28T02:24:30.095Z,32.70
2018-06-28T02:27:03.871Z,32.90
2018-06-28T02:29:38.506Z,33.10
2018-06-28T02:32:12.302Z,33.30
2018-06-28T02:34:45.994Z,33.50
2018-06-28T02:37:19.823Z,33.50
2018-06-28T02:39:53.625Z,33.60
2018-06-28T02:44:59.654Z,33.70
2018-06-28T02:47:34.005Z,33.80
2018-06-28T02:50:07.444Z,33.80
2018-06-28T02:52:40.707Z,33.90
2018-06-28T02:55:13.749Z,33.90
2018-06-28T02:57:46.899Z,33.90
2018-06-28T03:00:20.117Z,34.00
2018-06-28T03:02:53.226Z,34.10
2018-06-28T03:05:26.307Z,34.20
2018-06-28T03:07:59.328Z,34.30
2018-06-28T03:10:32.523Z,34.40
2018-06-28T03:15:37.222Z,34.60
2018-06-28T03:18:10.494Z,34.60
2018-06-28T03:20:43.874Z,34.60
2018-06-28T03:23:17.032Z,34.60
2018-06-28T03:25:50.049Z,34.60
2018-06-28T03:28:23.266Z,34.70
2018-06-28T03:30:56.451Z,34.80
2018-06-28T03:33:29.740Z,34.90
2018-06-28T03:36:03.051Z,34.90
2018-06-28T03:38:36.335Z,34.80
2018-06-28T03:41:09.457Z,34.90
2018-06-28T03:43:42.470Z,35.00
2018-06-28T03:46:15.595Z,35.00
2018-06-28T03:48:48.955Z,35.00
2018-06-28T03:51:22.070Z,35.10
2018-06-28T03:53:55.822Z,35.10
2018-06-28T03:56:29.627Z,35.20
2018-06-28T03:59:04.130Z,35.30
2018-06-28T04:01:37.438Z,35.30
2018-06-28T04:04:11.038Z,35.40
2018-06-28T04:06:44.689Z,35.40
2018-06-28T04:09:18.850Z,35.40
2018-06-28T04:11:52.754Z,35.40
2018-06-28T04:14:29.804Z,35.50
2018-06-28T04:17:03.598Z,35.50
2018-06-28T04:19:38.211Z,35.60
2018-06-28T04:22:20.006Z,35.50
2018-06-28T04:24:53.697Z,35.50
2018-06-28T04:27:27.070Z,35.50
2018-06-28T04:30:01.045Z,35.50
2018-06-28T04:32:34.761Z,35.50
2018-06-28T04:35:08.671Z,35.60
2018-06-28T04:37:41.763Z,35.60
2018-06-28T04:40:14.911Z,35.70
2018-06-28T04:42:47.935Z,35.80
2018-06-28T04:45:21.057Z,35.80
2018-06-28T04:47:54.211Z,35.70
2018-06-28T04:50:27.420Z,35.70
2018-06-28T04:53:00.663Z,35.70
2018-06-28T04:55:34.016Z,35.80
2018-06-28T04:58:07.463Z,35.80
2018-06-28T05:00:41.339Z,35.80
2018-06-28T05:03:14.457Z,35.90
2018-06-28T05:05:47.459Z,35.90
2018-06-28T05:08:20.700Z,36.00
2018-06-28T05:10:53.876Z,36.00
2018-06-28T05:13:27.242Z,36.00
2018-06-28T05:16:00.427Z,36.00
2018-06-28T05:18:33.522Z,36.00
2018-06-28T05:21:06.689Z,36.00
2018-06-28T05:23:39.823Z,36.10
2018-06-28T05:26:13.771Z,36.10
2018-06-28T05:28:47.167Z,36.20
2018-06-28T05:31:20.479Z,36.20
2018-06-28T05:33:54.576Z,36.20
2018-06-28T05:36:27.731Z,36.20
2018-06-28T05:39:01.590Z,36.10
2018-06-28T05:41:34.680Z,36.10
2018-06-28T05:44:08.010Z,36.20
2018-06-28T05:46:41.122Z,36.30
2018-06-28T05:49:14.231Z,36.40
2018-06-28T05:51:48.243Z,36.40
2018-06-28T05:54:21.657Z,36.40
2018-06-28T05:56:54.924Z,36.40
2018-06-28T05:59:28.215Z,36.30
2018-06-28T06:02:01.897Z,36.20
2018-06-28T06:04:35.358Z,36.10
2018-06-28T06:07:09.285Z,36.10
2018-06-28T06:09:43.609Z,36.20
2018-06-28T06:12:17.322Z,36.30
2018-06-28T06:14:50.780Z,36.30
2018-06-28T06:17:24.348Z,36.40
2018-06-28T06:19:58.008Z,36.40
2018-06-28T06:22:31.445Z,36.40
2018-06-28T06:25:05.785Z,36.30
2018-06-28T06:27:39.275Z,36.10
2018-06-28T06:30:13.242Z,36.10
2018-06-28T06:32:46.899Z,36.20
2018-06-28T06:35:20.072Z,36.40
2018-06-28T06:37:53.520Z,36.30
2018-06-28T06:40:26.858Z,35.90
2018-06-28T06:43:00.188Z,35.90
2018-06-28T06:45:33.295Z,35.90
2018-06-28T06:48:06.509Z,36.10
2018-06-28T06:50:39.567Z,36.30
2018-06-28T06:53:12.857Z,36.50
2018-06-28T06:55:46.068Z,36.70
2018-06-28T06:58:19.300Z,36.80
2018-06-28T07:01:00.000Z,36.80
2018-06-28T07:03:34.678Z,36.80
2018-06-28T07:06:08.000Z,36.80
2018-06-28T07:08:41.020Z,36.90
2018-06-28T07:11:14.404Z,36.90
2018-06-28T07:13:47.447Z,36.90
2018-06-28T07:16:20.518Z,36.40
2018-06-28T07:18:53.616Z,36.40
2018-06-28T07:21:26.806Z,36.40
2018-06-28T07:23:59.969Z,36.50
2018-06-28T07:26:33.398Z,36.60
2018-06-28T07:31:44.607Z,36.80
2018-06-28T07:34:18.025Z,36.70
2018-06-28T07:36:51.261Z,36.50
2018-06-28T07:39:24.439Z,36.50
2018-06-28T07:41:57.531Z,36.40
2018-06-28T07:44:30.595Z,36.40
2018-06-28T07:47:03.643Z,36.70
2018-06-28T07:49:37.420Z,36.80
2018-06-28T07:52:10.506Z,36.80
2018-06-28T07:54:43.665Z,36.80
2018-06-28T07:57:25.886Z,36.80
2018-06-28T07:59:58.956Z,36.80
2018-06-28T08:02:32.213Z,36.80
2018-06-28T08:05:05.447Z,36.80
2018-06-28T08:07:38.519Z,36.80
2018-06-28T08:10:11.854Z,36.80
2018-06-28T08:12:44.976Z,36.90
2018-06-28T08:15:18.072Z,37.00
2018-06-28T08:17:51.513Z,37.00
2018-06-28T08:20:25.873Z,37.10
2018-06-28T08:22:59.080Z,37.20
2018-06-28T08:25:32.247Z,37.30
2018-06-28T08:28:05.424Z,37.30
2018-06-28T08:30:42.611Z,37.40
2018-06-28T08:33:15.787Z,37.50
2018-06-28T08:35:49.117Z,37.40
2018-06-28T08:38:22.313Z,37.40
2018-06-28T08:40:55.382Z,37.20
2018-06-28T08:43:28.825Z,36.90
2018-06-28T08:46:02.067Z,37.10
2018-06-28T08:48:35.622Z,37.30
2018-06-28T08:51:08.911Z,37.40
2018-06-28T08:53:42.692Z,37.20
2018-06-28T08:56:15.821Z,37.10
2018-06-28T08:58:48.938Z,36.80
2018-06-28T09:01:22.173Z,36.50
2018-06-28T09:03:55.451Z,36.50
2018-06-28T09:06:28.550Z,36.60
2018-06-28T09:09:01.721Z,36.70
2018-06-28T09:11:34.828Z,36.80
2018-06-28T09:14:07.972Z,36.90
2018-06-28T09:16:41.206Z,37.00
2018-06-28T09:19:14.232Z,37.00
2018-06-28T09:21:47.354Z,37.10
2018-06-28T09:24:20.459Z,37.00
2018-06-28T09:26:53.509Z,36.90
2018-06-28T09:29:26.586Z,36.80
2018-06-28T09:34:31.607Z,36.60
2018-06-28T09:37:04.888Z,36.50
2018-06-28T09:39:37.954Z,36.50
2018-06-28T09:42:11.514Z,36.50
2018-06-28T09:47:17.045Z,36.50
2018-06-28T09:49:50.260Z,36.40
2018-06-28T09:52:24.002Z,36.40
2018-06-28T09:54:57.148Z,36.40
2018-06-28T09:57:30.356Z,36.30
2018-06-28T10:00:03.562Z,36.30
2018-06-28T10:02:37.117Z,36.20
2018-06-28T10:05:11.097Z,36.10
2018-06-28T10:07:44.327Z,36.00
2018-06-28T10:12:54.908Z,35.80
2018-06-28T10:15:28.360Z,35.70
2018-06-28T10:18:02.279Z,35.50
2018-06-28T10:20:35.731Z,35.30
2018-06-28T10:23:09.193Z,35.10
2018-06-28T10:25:42.755Z,35.00
2018-06-28T10:28:16.291Z,34.80
2018-06-28T10:30:49.565Z,34.60
2018-06-28T10:33:23.387Z,34.40
2018-06-28T10:35:56.405Z,34.10
2018-06-28T10:38:29.423Z,33.70
2018-06-28T10:41:02.619Z,33.40
2018-06-28T10:43:35.757Z,33.30
2018-06-28T10:46:08.976Z,33.10
2018-06-28T10:48:42.003Z,33.10
2018-06-28T10:51:15.145Z,32.90
2018-06-28T10:53:48.208Z,32.90
2018-06-28T10:56:21.339Z,32.90
2018-06-28T10:58:54.352Z,32.80
2018-06-28T11:01:27.472Z,32.80
2018-06-28T11:04:00.786Z,32.70
2018-06-28T11:06:34.214Z,32.60
2018-06-28T11:09:10.035Z,32.60
2018-06-28T11:14:15.191Z,32.20
2018-06-28T11:16:48.298Z,32.00
2018-06-28T11:19:21.250Z,31.90
2018-06-28T11:21:54.391Z,31.80
2018-06-28T11:24:27.493Z,31.70
2018-06-28T11:27:00.610Z,31.60
2018-06-28T11:29:33.815Z,31.50
2018-06-28T11:32:06.863Z,31.40
2018-06-28T11:34:39.970Z,31.30
2018-06-28T11:37:13.368Z,31.20
2018-06-28T11:39:46.539Z,31.10
2018-06-28T11:42:19.680Z,31.00
2018-06-28T11:44:53.040Z,31.00
2018-06-28T11:47:26.182Z,30.90
2018-06-28T11:49:59.342Z,30.90
2018-06-28T11:52:32.710Z,30.80
2018-06-28T11:55:06.064Z,30.80
2018-06-28T12:00:11.545Z,30.70
2018-06-28T12:02:45.116Z,30.70
2018-06-28T12:05:18.197Z,30.60
2018-06-28T12:07:51.288Z,30.60
2018-06-28T12:10:24.375Z,30.60
2018-06-28T12:12:57.460Z,30.60
2018-06-28T12:15:30.706Z,30.60
2018-06-28T12:18:03.804Z,30.60
2018-06-28T12:20:36.915Z,30.60
2018-06-28T12:23:10.066Z,30.60
2018-06-28T12:25:43.142Z,30.60
2018-06-28T12:28:16.255Z,30.60
2018-06-28T12:30:49.256Z,30.50
2018-06-28T12:33:22.467Z,30.40
2018-06-28T12:35:59.746Z,30.30
2018-06-28T12:38:33.890Z,30.20
2018-06-28T12:41:06.945Z,30.20
2018-06-28T12:43:40.188Z,30.20
2018-06-28T12:46:14.030Z,30.20
2018-06-28T12:48:47.158Z,30.30
2018-06-28T12:51:25.152Z,30.20
2018-06-28T12:53:58.290Z,30.30
2018-06-28T12:56:33.436Z,30.20
2018-06-28T12:59:07.954Z,30.20
2018-06-28T13:01:40.962Z,30.20
2018-06-28T13:04:14.275Z,30.10
2018-06-28T13:06:47.567Z,30.10
2018-06-28T13:09:21.359Z,29.90
2018-06-28T13:11:55.226Z,29.80
2018-06-28T13:14:28.272Z,29.70
2018-06-28T13:17:01.585Z,29.70
2018-06-28T13:19:34.897Z,29.70
2018-06-28T13:22:07.990Z,29.60
2018-06-28T13:24:41.864Z,29.50
2018-06-28T13:27:15.068Z,29.50
2018-06-28T13:29:49.174Z,29.40
2018-06-28T13:32:22.357Z,29.50
2018-06-28T13:34:55.536Z,29.50
2018-06-28T13:37:28.723Z,29.40
2018-06-28T13:40:01.911Z,29.40
2018-06-28T13:42:35.843Z,29.30
2018-06-28T13:45:09.096Z,29.30
2018-06-28T13:47:42.236Z,29.30
2018-06-28T13:50:15.261Z,29.30
2018-06-28T13:52:48.415Z,29.20
2018-06-28T13:55:21.961Z,29.00
2018-06-28T13:57:55.318Z,29.00
2018-06-28T14:03:00.488Z,28.90
2018-06-28T14:05:34.954Z,28.90
2018-06-28T14:08:08.432Z,28.90
2018-06-28T14:10:42.544Z,29.00
2018-06-28T14:13:16.936Z,29.00
2018-06-28T14:15:50.682Z,29.00
2018-06-28T14:18:24.512Z,28.90
2018-06-28T14:20:59.191Z,28.90
2018-06-28T14:23:33.928Z,28.80
2018-06-28T14:26:10.228Z,28.80
2018-06-28T14:28:44.130Z,28.80
2018-06-28T14:31:18.052Z,28.70
2018-06-28T14:33:52.148Z,28.70
2018-06-28T14:36:25.336Z,28.70
2018-06-28T14:38:58.575Z,28.70
2018-06-28T14:41:31.599Z,28.70
2018-06-28T14:44:04.918Z,28.70
2018-06-28T14:46:38.119Z,28.70
2018-06-28T14:49:11.216Z,28.70
2018-06-28T14:51:44.468Z,28.70
2018-06-28T14:54:17.609Z,28.70
2018-06-28T14:56:50.909Z,28.60
2018-06-28T15:01:56.553Z,28.60
2018-06-28T15:04:29.721Z,28.60
2018-06-28T15:07:02.827Z,28.50
2018-06-28T15:09:35.932Z,28.50
2018-06-28T15:12:09.152Z,28.50
2018-06-28T15:14:42.199Z,28.50
2018-06-28T15:17:15.381Z,28.50
2018-06-28T15:19:48.502Z,28.50
2018-06-28T15:22:21.623Z,28.80
2018-06-28T15:24:54.722Z,28.50
2018-06-28T15:27:28.006Z,28.50
2018-06-28T15:30:01.271Z,28.60
2018-06-28T15:32:34.427Z,28.50
2018-06-28T15:35:07.590Z,28.60
2018-06-28T15:37:40.642Z,28.60
2018-06-28T15:40:13.814Z,28.60
2018-06-28T15:42:46.947Z,28.50
2018-06-28T15:45:20.043Z,28.50
2018-06-28T15:47:53.042Z,28.50
2018-06-28T15:50:26.195Z,28.50
2018-06-28T15:55:31.264Z,28.30
2018-06-28T15:58:04.447Z,28.30
2018-06-28T16:03:09.349Z,28.30
2018-06-28T16:05:42.394Z,28.20
2018-06-28T16:08:15.473Z,28.20
2018-06-28T16:10:48.552Z,28.20
2018-06-28T16:13:21.729Z,28.20
2018-06-28T16:15:54.823Z,28.20
2018-06-28T16:18:28.355Z,28.20
2018-06-28T16:21:01.480Z,28.20
2018-06-28T16:23:34.563Z,28.10
2018-06-28T16:26:07.661Z,28.10
2018-06-28T16:28:40.759Z,28.10
2018-06-28T16:36:17.107Z,28.10
2018-06-28T16:38:50.450Z,28.10
2018-06-28T16:41:23.533Z,28.10
2018-06-28T16:43:56.722Z,28.10
2018-06-28T16:46:30.794Z,28.00
2018-06-28T16:49:03.969Z,28.00
2018-06-28T16:51:37.107Z,28.00
2018-06-28T16:54:10.249Z,27.90
2018-06-28T16:56:43.903Z,27.90
2018-06-28T16:59:16.900Z,27.90
2018-06-28T17:01:49.911Z,27.90
2018-06-28T17:04:23.111Z,27.80
2018-06-28T17:06:56.302Z,27.80
2018-06-28T17:09:29.472Z,27.80
2018-06-28T17:12:03.659Z,27.80
2018-06-28T17:14:36.874Z,27.80
2018-06-28T17:17:09.920Z,27.80
2018-06-28T17:19:43.052Z,27.80
2018-06-28T17:22:16.355Z,27.70
2018-06-28T17:24:49.611Z,27.70
2018-06-28T17:29:54.354Z,27.70
2018-06-28T17:32:27.480Z,27.70
2018-06-28T17:35:00.562Z,27.60
2018-06-28T17:37:33.774Z,27.60
2018-06-28T17:40:06.970Z,27.60
2018-06-28T17:42:40.090Z,27.60
2018-06-28T17:45:13.184Z,27.70
2018-06-28T17:47:46.194Z,27.70
2018-06-28T17:50:19.196Z,27.70
2018-06-28T17:52:52.341Z,27.80
2018-06-28T17:55:25.463Z,27.80
2018-06-28T17:57:58.446Z,27.70
2018-06-28T18:00:31.535Z,27.80
